sensor_id;sensor_type;location;lat;lon;timestamp;P1;durP1;ratioP1;P2;durP2;ratioP2
31386;SDS011;69978;50.096;8.448;2023-05-07T00:00:32;11.98;;;2.33;;
31386;SDS011;69978;50.096;8.448;2023-05-07T00:02:59;7.35;;;1.80;;
31386;SDS011;69978;50.096;8.448;2023-05-07T00:07:52;50.78;;;11.80;;
31386;SDS011;69978;50.096;8.448;2023-05-07T00:10:18;30.23;;;6.75;;
31386;SDS011;69978;50.096;8.448;2023-05-07T00:12:44;25.67;;;5.45;;
31386;SDS011;69978;50.096;8.448;2023-05-07T00:15:10;13.00;;;3.03;;
31386;SDS011;69978;50.096;8.448;2023-05-07T00:17:36;6.68;;;1.33;;
31386;SDS011;69978;50.096;8.448;2023-05-07T00:20:02;6.70;;;1.23;;
31386;SDS011;69978;50.096;8.448;2023-05-07T00:22:29;2.45;;;0.70;;
31386;SDS011;69978;50.096;8.448;2023-05-07T00:24:56;3.17;;;0.38;;
31386;SDS011;69978;50.096;8.448;2023-05-07T00:27:21;0.77;;;0.30;;
31386;SDS011;69978;50.096;8.448;2023-05-07T00:29:47;0.47;;;0.30;;
31386;SDS011;69978;50.096;8.448;2023-05-07T00:32:13;2.42;;;0.40;;
31386;SDS011;69978;50.096;8.448;2023-05-07T00:34:40;2.28;;;0.35;;
31386;SDS011;69978;50.096;8.448;2023-05-07T00:37:05;1.58;;;0.32;;
31386;SDS011;69978;50.096;8.448;2023-05-07T00:39:32;1.27;;;0.30;;
31386;SDS011;69978;50.096;8.448;2023-05-07T00:41:58;0.75;;;0.20;;
31386;SDS011;69978;50.096;8.448;2023-05-07T00:44:25;0.82;;;0.22;;
31386;SDS011;69978;50.096;8.448;2023-05-07T00:46:51;3.20;;;0.30;;
31386;SDS011;69978;50.096;8.448;2023-05-07T00:49:17;0.90;;;0.35;;
31386;SDS011;69978;50.096;8.448;2023-05-07T00:51:43;1.23;;;0.30;;
31386;SDS011;69978;50.096;8.448;2023-05-07T00:54:09;1.70;;;0.50;;
31386;SDS011;69978;50.096;8.448;2023-05-07T00:56:36;0.52;;;0.40;;
31386;SDS011;69978;50.096;8.448;2023-05-07T00:59:04;2.70;;;0.40;;
31386;SDS011;69978;50.096;8.448;2023-05-07T01:01:31;2.90;;;0.32;;
31386;SDS011;69978;50.096;8.448;2023-05-07T01:03:56;0.75;;;0.30;;
31386;SDS011;69978;50.096;8.448;2023-05-07T01:06:22;2.40;;;0.43;;
31386;SDS011;69978;50.096;8.448;2023-05-07T01:08:49;1.83;;;0.20;;
31386;SDS011;69978;50.096;8.448;2023-05-07T01:11:17;1.65;;;0.30;;
31386;SDS011;69978;50.096;8.448;2023-05-07T01:13:45;2.75;;;0.30;;
31386;SDS011;69978;50.096;8.448;2023-05-07T01:16:11;1.45;;;0.60;;
31386;SDS011;69978;50.096;8.448;2023-05-07T01:18:37;2.38;;;0.28;;
31386;SDS011;69978;50.096;8.448;2023-05-07T01:21:04;1.42;;;0.20;;
31386;SDS011;69978;50.096;8.448;2023-05-07T01:23:29;1.23;;;0.40;;
31386;SDS011;69978;50.096;8.448;2023-05-07T01:25:56;4.15;;;0.60;;
31386;SDS011;69978;50.096;8.448;2023-05-07T01:28:21;4.40;;;0.50;;
31386;SDS011;69978;50.096;8.448;2023-05-07T01:30:49;3.67;;;0.60;;
31386;SDS011;69978;50.096;8.448;2023-05-07T01:33:21;1.60;;;0.40;;
31386;SDS011;69978;50.096;8.448;2023-05-07T01:35:48;1.73;;;0.60;;
31386;SDS011;69978;50.096;8.448;2023-05-07T01:38:17;3.00;;;0.30;;
31386;SDS011;69978;50.096;8.448;2023-05-07T01:40:43;0.43;;;0.20;;
31386;SDS011;69978;50.096;8.448;2023-05-07T01:43:09;1.52;;;0.30;;
31386;SDS011;69978;50.096;8.448;2023-05-07T01:45:35;4.85;;;0.57;;
31386;SDS011;69978;50.096;8.448;2023-05-07T01:48:02;6.55;;;1.00;;
31386;SDS011;69978;50.096;8.448;2023-05-07T01:50:28;3.30;;;1.00;;
31386;SDS011;69978;50.096;8.448;2023-05-07T01:52:54;8.25;;;1.50;;
31386;SDS011;69978;50.096;8.448;2023-05-07T01:55:20;5.50;;;1.30;;
31386;SDS011;69978;50.096;8.448;2023-05-07T01:57:46;5.63;;;1.50;;
31386;SDS011;69978;50.096;8.448;2023-05-07T02:00:11;6.93;;;1.70;;
31386;SDS011;69978;50.096;8.448;2023-05-07T02:02:37;6.65;;;1.55;;
31386;SDS011;69978;50.096;8.448;2023-05-07T02:05:03;7.60;;;1.50;;
31386;SDS011;69978;50.096;8.448;2023-05-07T02:07:29;8.50;;;1.13;;
31386;SDS011;69978;50.096;8.448;2023-05-07T02:09:55;5.78;;;1.08;;
31386;SDS011;69978;50.096;8.448;2023-05-07T02:12:21;5.28;;;1.30;;
31386;SDS011;69978;50.096;8.448;2023-05-07T02:14:47;9.13;;;1.90;;
31386;SDS011;69978;50.096;8.448;2023-05-07T02:17:12;2.70;;;1.00;;
31386;SDS011;69978;50.096;8.448;2023-05-07T02:19:38;3.05;;;0.60;;
31386;SDS011;69978;50.096;8.448;2023-05-07T02:22:03;1.70;;;0.50;;
31386;SDS011;69978;50.096;8.448;2023-05-07T02:24:29;2.10;;;0.40;;
31386;SDS011;69978;50.096;8.448;2023-05-07T02:26:55;0.82;;;0.40;;
31386;SDS011;69978;50.096;8.448;2023-05-07T02:29:20;2.17;;;0.43;;
31386;SDS011;69978;50.096;8.448;2023-05-07T02:31:46;3.17;;;0.50;;
31386;SDS011;69978;50.096;8.448;2023-05-07T02:34:15;2.85;;;0.55;;
31386;SDS011;69978;50.096;8.448;2023-05-07T02:36:41;1.73;;;0.50;;
31386;SDS011;69978;50.096;8.448;2023-05-07T02:39:07;2.05;;;0.68;;
31386;SDS011;69978;50.096;8.448;2023-05-07T02:41:32;5.10;;;0.80;;
31386;SDS011;69978;50.096;8.448;2023-05-07T02:43:58;4.40;;;1.05;;
31386;SDS011;69978;50.096;8.448;2023-05-07T02:46:24;4.22;;;1.08;;
31386;SDS011;69978;50.096;8.448;2023-05-07T02:48:49;4.72;;;1.30;;
31386;SDS011;69978;50.096;8.448;2023-05-07T02:51:16;3.60;;;0.75;;
31386;SDS011;69978;50.096;8.448;2023-05-07T02:53:45;1.98;;;0.68;;
31386;SDS011;69978;50.096;8.448;2023-05-07T02:56:11;2.60;;;0.50;;
31386;SDS011;69978;50.096;8.448;2023-05-07T02:58:37;1.50;;;0.50;;
31386;SDS011;69978;50.096;8.448;2023-05-07T03:01:04;1.00;;;0.45;;
31386;SDS011;69978;50.096;8.448;2023-05-07T03:03:30;3.70;;;0.28;;
31386;SDS011;69978;50.096;8.448;2023-05-07T03:05:56;1.42;;;0.57;;
31386;SDS011;69978;50.096;8.448;2023-05-07T03:08:21;2.63;;;0.40;;
31386;SDS011;69978;50.096;8.448;2023-05-07T03:10:47;1.77;;;0.40;;
31386;SDS011;69978;50.096;8.448;2023-05-07T03:13:13;0.75;;;0.30;;
31386;SDS011;69978;50.096;8.448;2023-05-07T03:15:39;2.63;;;0.30;;
31386;SDS011;69978;50.096;8.448;2023-05-07T03:18:04;0.80;;;0.43;;
31386;SDS011;69978;50.096;8.448;2023-05-07T03:20:30;1.23;;;0.32;;
31386;SDS011;69978;50.096;8.448;2023-05-07T03:22:56;1.73;;;0.40;;
31386;SDS011;69978;50.096;8.448;2023-05-07T03:25:21;2.05;;;0.40;;
31386;SDS011;69978;50.096;8.448;2023-05-07T03:27:47;1.17;;;0.50;;
31386;SDS011;69978;50.096;8.448;2023-05-07T03:30:12;1.83;;;0.50;;
31386;SDS011;69978;50.096;8.448;2023-05-07T03:32:38;1.30;;;0.40;;
31386;SDS011;69978;50.096;8.448;2023-05-07T03:35:04;3.85;;;0.55;;
31386;SDS011;69978;50.096;8.448;2023-05-07T03:37:29;1.67;;;0.47;;
31386;SDS011;69978;50.096;8.448;2023-05-07T03:39:55;3.35;;;0.60;;
31386;SDS011;69978;50.096;8.448;2023-05-07T03:42:21;2.80;;;0.45;;
31386;SDS011;69978;50.096;8.448;2023-05-07T03:44:46;1.27;;;0.22;;
31386;SDS011;69978;50.096;8.448;2023-05-07T03:47:12;0.90;;;0.30;;
31386;SDS011;69978;50.096;8.448;2023-05-07T03:49:38;1.58;;;0.20;;
31386;SDS011;69978;50.096;8.448;2023-05-07T03:52:04;1.38;;;0.30;;
31386;SDS011;69978;50.096;8.448;2023-05-07T03:54:30;1.40;;;0.50;;
31386;SDS011;69978;50.096;8.448;2023-05-07T03:56:56;1.75;;;0.40;;
31386;SDS011;69978;50.096;8.448;2023-05-07T03:59:22;0.70;;;0.40;;
31386;SDS011;69978;50.096;8.448;2023-05-07T04:01:47;2.90;;;0.30;;
31386;SDS011;69978;50.096;8.448;2023-05-07T04:04:16;1.00;;;0.40;;
31386;SDS011;69978;50.096;8.448;2023-05-07T04:06:42;1.98;;;0.45;;
31386;SDS011;69978;50.096;8.448;2023-05-07T04:09:07;2.17;;;0.40;;
31386;SDS011;69978;50.096;8.448;2023-05-07T04:11:33;0.93;;;0.50;;
31386;SDS011;69978;50.096;8.448;2023-05-07T04:14:00;2.60;;;0.40;;
31386;SDS011;69978;50.096;8.448;2023-05-07T04:16:25;1.48;;;0.43;;
31386;SDS011;69978;50.096;8.448;2023-05-07T04:18:51;1.52;;;0.32;;
31386;SDS011;69978;50.096;8.448;2023-05-07T04:21:17;2.00;;;0.32;;
31386;SDS011;69978;50.096;8.448;2023-05-07T04:23:44;1.25;;;0.40;;
31386;SDS011;69978;50.096;8.448;2023-05-07T04:26:13;0.50;;;0.30;;
31386;SDS011;69978;50.096;8.448;2023-05-07T04:28:39;2.03;;;0.30;;
31386;SDS011;69978;50.096;8.448;2023-05-07T04:31:05;2.78;;;0.38;;
31386;SDS011;69978;50.096;8.448;2023-05-07T04:33:31;2.50;;;0.40;;
31386;SDS011;69978;50.096;8.448;2023-05-07T04:35:57;2.88;;;0.50;;
31386;SDS011;69978;50.096;8.448;2023-05-07T04:38:27;2.65;;;0.40;;
31386;SDS011;69978;50.096;8.448;2023-05-07T04:40:56;0.63;;;0.30;;
31386;SDS011;69978;50.096;8.448;2023-05-07T04:43:23;1.50;;;0.32;;
31386;SDS011;69978;50.096;8.448;2023-05-07T04:45:51;0.88;;;0.30;;
31386;SDS011;69978;50.096;8.448;2023-05-07T04:48:17;1.48;;;0.30;;
31386;SDS011;69978;50.096;8.448;2023-05-07T04:50:44;0.75;;;0.22;;
31386;SDS011;69978;50.096;8.448;2023-05-07T04:53:12;2.25;;;0.50;;
31386;SDS011;69978;50.096;8.448;2023-05-07T04:55:37;2.40;;;0.40;;
31386;SDS011;69978;50.096;8.448;2023-05-07T04:58:03;2.53;;;0.50;;
31386;SDS011;69978;50.096;8.448;2023-05-07T05:00:29;2.08;;;0.40;;
31386;SDS011;69978;50.096;8.448;2023-05-07T05:02:55;1.98;;;0.38;;
31386;SDS011;69978;50.096;8.448;2023-05-07T05:05:21;1.55;;;0.28;;
31386;SDS011;69978;50.096;8.448;2023-05-07T05:07:46;2.03;;;0.30;;
31386;SDS011;69978;50.096;8.448;2023-05-07T05:10:12;3.35;;;0.50;;
31386;SDS011;69978;50.096;8.448;2023-05-07T05:12:37;1.08;;;0.50;;
31386;SDS011;69978;50.096;8.448;2023-05-07T05:15:03;0.90;;;0.47;;
31386;SDS011;69978;50.096;8.448;2023-05-07T05:17:30;2.28;;;0.50;;
31386;SDS011;69978;50.096;8.448;2023-05-07T05:19:55;3.30;;;0.43;;
31386;SDS011;69978;50.096;8.448;2023-05-07T05:22:21;1.40;;;0.50;;
31386;SDS011;69978;50.096;8.448;2023-05-07T05:24:47;2.15;;;0.45;;
31386;SDS011;69978;50.096;8.448;2023-05-07T05:27:12;0.65;;;0.28;;
31386;SDS011;69978;50.096;8.448;2023-05-07T05:29:38;1.77;;;0.40;;
31386;SDS011;69978;50.096;8.448;2023-05-07T05:32:03;1.52;;;0.38;;
31386;SDS011;69978;50.096;8.448;2023-05-07T05:34:29;5.10;;;0.30;;
31386;SDS011;69978;50.096;8.448;2023-05-07T05:36:55;2.15;;;0.50;;
31386;SDS011;69978;50.096;8.448;2023-05-07T05:39:20;1.88;;;0.45;;
31386;SDS011;69978;50.096;8.448;2023-05-07T05:41:48;0.50;;;0.50;;
31386;SDS011;69978;50.096;8.448;2023-05-07T05:44:13;3.97;;;0.35;;
31386;SDS011;69978;50.096;8.448;2023-05-07T05:46:39;1.90;;;0.35;;
31386;SDS011;69978;50.096;8.448;2023-05-07T05:49:04;1.70;;;0.40;;
31386;SDS011;69978;50.096;8.448;2023-05-07T05:51:30;0.68;;;0.30;;
31386;SDS011;69978;50.096;8.448;2023-05-07T05:53:59;1.20;;;0.40;;
31386;SDS011;69978;50.096;8.448;2023-05-07T05:56:24;1.65;;;0.55;;
31386;SDS011;69978;50.096;8.448;2023-05-07T05:58:50;1.50;;;0.52;;
31386;SDS011;69978;50.096;8.448;2023-05-07T06:01:19;3.40;;;0.40;;
31386;SDS011;69978;50.096;8.448;2023-05-07T06:03:45;1.38;;;0.50;;
31386;SDS011;69978;50.096;8.448;2023-05-07T06:06:10;0.88;;;0.40;;
31386;SDS011;69978;50.096;8.448;2023-05-07T06:08:36;1.00;;;0.50;;
31386;SDS011;69978;50.096;8.448;2023-05-07T06:11:01;1.92;;;0.60;;
31386;SDS011;69978;50.096;8.448;2023-05-07T06:13:27;0.60;;;0.30;;
31386;SDS011;69978;50.096;8.448;2023-05-07T06:15:53;6.10;;;0.77;;
31386;SDS011;69978;50.096;8.448;2023-05-07T06:18:19;3.53;;;0.50;;
31386;SDS011;69978;50.096;8.448;2023-05-07T06:20:52;2.53;;;0.50;;
31386;SDS011;69978;50.096;8.448;2023-05-07T06:23:18;1.55;;;0.55;;
31386;SDS011;69978;50.096;8.448;2023-05-07T06:25:49;4.35;;;0.80;;
31386;SDS011;69978;50.096;8.448;2023-05-07T06:28:15;2.03;;;0.40;;
31386;SDS011;69978;50.096;8.448;2023-05-07T06:30:41;1.48;;;0.55;;
31386;SDS011;69978;50.096;8.448;2023-05-07T06:33:07;3.30;;;0.40;;
31386;SDS011;69978;50.096;8.448;2023-05-07T06:35:33;0.50;;;0.40;;
31386;SDS011;69978;50.096;8.448;2023-05-07T06:37:59;1.67;;;0.60;;
31386;SDS011;69978;50.096;8.448;2023-05-07T06:40:25;1.92;;;0.60;;
31386;SDS011;69978;50.096;8.448;2023-05-07T06:42:51;1.42;;;0.50;;
31386;SDS011;69978;50.096;8.448;2023-05-07T06:45:19;0.50;;;0.45;;
31386;SDS011;69978;50.096;8.448;2023-05-07T06:47:45;1.70;;;0.50;;
31386;SDS011;69978;50.096;8.448;2023-05-07T06:50:10;4.30;;;0.77;;
31386;SDS011;69978;50.096;8.448;2023-05-07T06:52:36;2.42;;;0.50;;
31386;SDS011;69978;50.096;8.448;2023-05-07T06:55:02;0.88;;;0.43;;
31386;SDS011;69978;50.096;8.448;2023-05-07T06:57:28;0.93;;;0.40;;
31386;SDS011;69978;50.096;8.448;2023-05-07T06:59:53;1.42;;;0.30;;
31386;SDS011;69978;50.096;8.448;2023-05-07T07:02:19;0.70;;;0.50;;
31386;SDS011;69978;50.096;8.448;2023-05-07T07:04:44;2.85;;;0.50;;
31386;SDS011;69978;50.096;8.448;2023-05-07T07:07:10;3.10;;;0.57;;
31386;SDS011;69978;50.096;8.448;2023-05-07T07:09:36;0.80;;;0.50;;
31386;SDS011;69978;50.096;8.448;2023-05-07T07:12:01;1.05;;;0.60;;
31386;SDS011;69978;50.096;8.448;2023-05-07T07:14:27;3.58;;;0.50;;
31386;SDS011;69978;50.096;8.448;2023-05-07T07:16:53;0.57;;;0.45;;
31386;SDS011;69978;50.096;8.448;2023-05-07T07:19:18;1.42;;;0.47;;
31386;SDS011;69978;50.096;8.448;2023-05-07T07:21:45;2.85;;;0.50;;
31386;SDS011;69978;50.096;8.448;2023-05-07T07:24:11;0.95;;;0.45;;
31386;SDS011;69978;50.096;8.448;2023-05-07T07:26:37;1.83;;;0.90;;
31386;SDS011;69978;50.096;8.448;2023-05-07T07:29:04;0.82;;;0.43;;
31386;SDS011;69978;50.096;8.448;2023-05-07T07:31:30;1.73;;;0.57;;
31386;SDS011;69978;50.096;8.448;2023-05-07T07:33:56;2.45;;;0.73;;
31386;SDS011;69978;50.096;8.448;2023-05-07T07:36:21;1.45;;;0.70;;
31386;SDS011;69978;50.096;8.448;2023-05-07T07:38:47;2.70;;;0.35;;
31386;SDS011;69978;50.096;8.448;2023-05-07T07:41:12;1.77;;;0.60;;
31386;SDS011;69978;50.096;8.448;2023-05-07T07:43:38;2.17;;;0.60;;
31386;SDS011;69978;50.096;8.448;2023-05-07T07:46:03;3.45;;;0.60;;
31386;SDS011;69978;50.096;8.448;2023-05-07T07:48:30;1.70;;;0.60;;
31386;SDS011;69978;50.096;8.448;2023-05-07T07:50:56;1.70;;;0.70;;
31386;SDS011;69978;50.096;8.448;2023-05-07T07:53:21;1.23;;;0.60;;
31386;SDS011;69978;50.096;8.448;2023-05-07T07:55:47;1.88;;;0.60;;
31386;SDS011;69978;50.096;8.448;2023-05-07T07:58:12;0.93;;;0.60;;
31386;SDS011;69978;50.096;8.448;2023-05-07T08:00:38;1.25;;;0.55;;
31386;SDS011;69978;50.096;8.448;2023-05-07T08:03:03;2.38;;;0.60;;
31386;SDS011;69978;50.096;8.448;2023-05-07T08:05:30;1.42;;;0.60;;
31386;SDS011;69978;50.096;8.448;2023-05-07T08:07:55;2.08;;;0.70;;
31386;SDS011;69978;50.096;8.448;2023-05-07T08:10:21;2.72;;;0.70;;
31386;SDS011;69978;50.096;8.448;2023-05-07T08:12:47;0.57;;;0.52;;
31386;SDS011;69978;50.096;8.448;2023-05-07T08:15:13;3.80;;;0.70;;
31386;SDS011;69978;50.096;8.448;2023-05-07T08:17:39;2.42;;;0.68;;
31386;SDS011;69978;50.096;8.448;2023-05-07T08:20:05;2.72;;;0.70;;
31386;SDS011;69978;50.096;8.448;2023-05-07T08:22:31;1.13;;;0.70;;
31386;SDS011;69978;50.096;8.448;2023-05-07T08:24:57;2.30;;;0.77;;
31386;SDS011;69978;50.096;8.448;2023-05-07T08:27:22;0.90;;;0.50;;
31386;SDS011;69978;50.096;8.448;2023-05-07T08:29:48;2.60;;;0.60;;
31386;SDS011;69978;50.096;8.448;2023-05-07T08:32:14;1.83;;;0.73;;
31386;SDS011;69978;50.096;8.448;2023-05-07T08:34:39;1.33;;;0.70;;
31386;SDS011;69978;50.096;8.448;2023-05-07T08:37:05;1.40;;;0.80;;
31386;SDS011;69978;50.096;8.448;2023-05-07T08:39:30;3.80;;;0.73;;
31386;SDS011;69978;50.096;8.448;2023-05-07T08:41:56;2.90;;;0.80;;
31386;SDS011;69978;50.096;8.448;2023-05-07T08:44:26;7.60;;;1.00;;
31386;SDS011;69978;50.096;8.448;2023-05-07T08:46:53;1.33;;;0.80;;
31386;SDS011;69978;50.096;8.448;2023-05-07T08:49:20;4.13;;;0.73;;
31386;SDS011;69978;50.096;8.448;2023-05-07T08:51:46;4.63;;;0.88;;
31386;SDS011;69978;50.096;8.448;2023-05-07T08:54:12;0.90;;;0.65;;
31386;SDS011;69978;50.096;8.448;2023-05-07T08:56:41;4.50;;;0.90;;
31386;SDS011;69978;50.096;8.448;2023-05-07T08:59:07;2.55;;;0.80;;
31386;SDS011;69978;50.096;8.448;2023-05-07T09:01:35;2.25;;;0.80;;
31386;SDS011;69978;50.096;8.448;2023-05-07T09:04:01;1.58;;;0.82;;
31386;SDS011;69978;50.096;8.448;2023-05-07T09:06:27;3.30;;;0.80;;
31386;SDS011;69978;50.096;8.448;2023-05-07T09:08:53;3.97;;;0.60;;
31386;SDS011;69978;50.096;8.448;2023-05-07T09:11:20;2.42;;;0.90;;
31386;SDS011;69978;50.096;8.448;2023-05-07T09:13:47;1.30;;;0.70;;
31386;SDS011;69978;50.096;8.448;2023-05-07T09:16:13;1.25;;;0.80;;
31386;SDS011;69978;50.096;8.448;2023-05-07T09:18:42;2.97;;;0.80;;
31386;SDS011;69978;50.096;8.448;2023-05-07T09:21:11;1.23;;;0.80;;
31386;SDS011;69978;50.096;8.448;2023-05-07T09:23:40;1.02;;;0.52;;
31386;SDS011;69978;50.096;8.448;2023-05-07T09:26:07;0.85;;;0.65;;
31386;SDS011;69978;50.096;8.448;2023-05-07T09:28:37;1.95;;;0.70;;
31386;SDS011;69978;50.096;8.448;2023-05-07T09:31:05;4.57;;;0.85;;
31386;SDS011;69978;50.096;8.448;2023-05-07T09:33:30;2.10;;;0.80;;
31386;SDS011;69978;50.096;8.448;2023-05-07T09:35:56;1.00;;;0.90;;
31386;SDS011;69978;50.096;8.448;2023-05-07T09:38:21;2.30;;;0.57;;
31386;SDS011;69978;50.096;8.448;2023-05-07T09:40:47;1.38;;;0.70;;
31386;SDS011;69978;50.096;8.448;2023-05-07T09:43:45;3.08;;;0.70;;
31386;SDS011;69978;50.096;8.448;2023-05-07T09:46:18;4.55;;;0.85;;
31386;SDS011;69978;50.096;8.448;2023-05-07T09:48:49;1.83;;;0.75;;
31386;SDS011;69978;50.096;8.448;2023-05-07T09:51:28;3.45;;;0.73;;
31386;SDS011;69978;50.096;8.448;2023-05-07T09:53:57;1.35;;;0.70;;
31386;SDS011;69978;50.096;8.448;2023-05-07T09:56:25;1.08;;;0.50;;
31386;SDS011;69978;50.096;8.448;2023-05-07T09:58:52;1.17;;;0.60;;
31386;SDS011;69978;50.096;8.448;2023-05-07T10:01:20;6.18;;;1.00;;
31386;SDS011;69978;50.096;8.448;2023-05-07T10:03:49;4.03;;;0.95;;
31386;SDS011;69978;50.096;8.448;2023-05-07T10:06:16;3.47;;;0.70;;
31386;SDS011;69978;50.096;8.448;2023-05-07T10:08:42;1.08;;;0.60;;
31386;SDS011;69978;50.096;8.448;2023-05-07T10:11:08;1.50;;;0.68;;
31386;SDS011;69978;50.096;8.448;2023-05-07T10:13:35;1.70;;;0.73;;
31386;SDS011;69978;50.096;8.448;2023-05-07T10:16:05;1.33;;;0.60;;
31386;SDS011;69978;50.096;8.448;2023-05-07T10:18:31;1.52;;;0.80;;
31386;SDS011;69978;50.096;8.448;2023-05-07T10:21:07;4.28;;;0.60;;
31386;SDS011;69978;50.096;8.448;2023-05-07T10:23:39;1.30;;;0.60;;
31386;SDS011;69978;50.096;8.448;2023-05-07T10:26:06;1.80;;;0.85;;
31386;SDS011;69978;50.096;8.448;2023-05-07T10:28:39;1.65;;;0.70;;
31386;SDS011;69978;50.096;8.448;2023-05-07T10:33:52;1.65;;;0.55;;
31386;SDS011;69978;50.096;8.448;2023-05-07T10:36:21;2.50;;;0.80;;
31386;SDS011;69978;50.096;8.448;2023-05-07T10:38:47;1.33;;;0.70;;
31386;SDS011;69978;50.096;8.448;2023-05-07T10:41:12;2.00;;;0.65;;
31386;SDS011;69978;50.096;8.448;2023-05-07T10:43:40;1.45;;;0.60;;
31386;SDS011;69978;50.096;8.448;2023-05-07T10:46:13;2.25;;;0.60;;
31386;SDS011;69978;50.096;8.448;2023-05-07T10:51:27;1.95;;;0.93;;
31386;SDS011;69978;50.096;8.448;2023-05-07T10:54:18;1.92;;;0.57;;
31386;SDS011;69978;50.096;8.448;2023-05-07T10:56:44;3.90;;;0.75;;
31386;SDS011;69978;50.096;8.448;2023-05-07T11:04:22;1.60;;;0.70;;
31386;SDS011;69978;50.096;8.448;2023-05-07T11:13:03;1.77;;;0.70;;
31386;SDS011;69978;50.096;8.448;2023-05-07T11:15:07;4.32;;;0.73;;
31386;SDS011;69978;50.096;8.448;2023-05-07T11:17:55;2.08;;;0.80;;
31386;SDS011;69978;50.096;8.448;2023-05-07T11:25:58;1.58;;;0.57;;
31386;SDS011;69978;50.096;8.448;2023-05-07T11:28:29;3.63;;;0.50;;
31386;SDS011;69978;50.096;8.448;2023-05-07T11:30:56;1.88;;;0.50;;
31386;SDS011;69978;50.096;8.448;2023-05-07T11:33:22;2.45;;;0.50;;
31386;SDS011;69978;50.096;8.448;2023-05-07T11:35:54;1.88;;;0.50;;
31386;SDS011;69978;50.096;8.448;2023-05-07T11:38:22;0.98;;;0.57;;
31386;SDS011;69978;50.096;8.448;2023-05-07T11:43:17;3.08;;;0.60;;
31386;SDS011;69978;50.096;8.448;2023-05-07T11:45:42;3.80;;;0.63;;
31386;SDS011;69978;50.096;8.448;2023-05-07T11:48:09;1.50;;;0.60;;
31386;SDS011;69978;50.096;8.448;2023-05-07T11:50:35;3.35;;;0.47;;
31386;SDS011;69978;50.096;8.448;2023-05-07T11:53:06;1.83;;;0.60;;
31386;SDS011;69978;50.096;8.448;2023-05-07T11:55:33;2.33;;;0.60;;
31386;SDS011;69978;50.096;8.448;2023-05-07T11:57:58;0.75;;;0.60;;
31386;SDS011;69978;50.096;8.448;2023-05-07T12:00:24;1.38;;;0.60;;
31386;SDS011;69978;50.096;8.448;2023-05-07T12:02:50;2.72;;;0.60;;
31386;SDS011;69978;50.096;8.448;2023-05-07T12:07:43;1.42;;;0.52;;
31386;SDS011;69978;50.096;8.448;2023-05-07T12:10:09;2.92;;;0.70;;
31386;SDS011;69978;50.096;8.448;2023-05-07T12:12:40;0.82;;;0.68;;
31386;SDS011;69978;50.096;8.448;2023-05-07T12:15:07;1.35;;;0.70;;
31386;SDS011;69978;50.096;8.448;2023-05-07T12:17:33;2.05;;;0.70;;
31386;SDS011;69978;50.096;8.448;2023-05-07T12:19:58;1.08;;;0.50;;
31386;SDS011;69978;50.096;8.448;2023-05-07T12:22:25;1.30;;;0.65;;
31386;SDS011;69978;50.096;8.448;2023-05-07T12:24:57;3.33;;;0.60;;
31386;SDS011;69978;50.096;8.448;2023-05-07T12:27:23;1.77;;;0.60;;
31386;SDS011;69978;50.096;8.448;2023-05-07T12:29:49;2.35;;;0.70;;
31386;SDS011;69978;50.096;8.448;2023-05-07T12:32:16;6.28;;;0.80;;
31386;SDS011;69978;50.096;8.448;2023-05-07T12:34:43;2.08;;;0.65;;
31386;SDS011;69978;50.096;8.448;2023-05-07T12:37:09;0.90;;;0.60;;
31386;SDS011;69978;50.096;8.448;2023-05-07T12:39:35;1.25;;;0.55;;
31386;SDS011;69978;50.096;8.448;2023-05-07T12:42:01;1.08;;;0.50;;
31386;SDS011;69978;50.096;8.448;2023-05-07T12:44:30;2.08;;;0.50;;
31386;SDS011;69978;50.096;8.448;2023-05-07T12:46:57;1.63;;;0.52;;
31386;SDS011;69978;50.096;8.448;2023-05-07T12:49:23;1.27;;;0.65;;
31386;SDS011;69978;50.096;8.448;2023-05-07T12:51:50;2.85;;;0.50;;
31386;SDS011;69978;50.096;8.448;2023-05-07T12:54:31;1.30;;;0.50;;
31386;SDS011;69978;50.096;8.448;2023-05-07T12:57:02;3.08;;;0.50;;
31386;SDS011;69978;50.096;8.448;2023-05-07T12:59:42;2.25;;;0.45;;
31386;SDS011;69978;50.096;8.448;2023-05-07T13:02:08;1.42;;;0.40;;
31386;SDS011;69978;50.096;8.448;2023-05-07T13:04:34;1.60;;;0.50;;
31386;SDS011;69978;50.096;8.448;2023-05-07T13:07:00;1.10;;;0.32;;
31386;SDS011;69978;50.096;8.448;2023-05-07T13:09:26;3.22;;;0.40;;
31386;SDS011;69978;50.096;8.448;2023-05-07T13:11:53;0.30;;;0.20;;
31386;SDS011;69978;50.096;8.448;2023-05-07T13:14:19;0.52;;;0.30;;
31386;SDS011;69978;50.096;8.448;2023-05-07T13:16:48;2.28;;;0.40;;
31386;SDS011;69978;50.096;8.448;2023-05-07T13:19:14;3.67;;;0.35;;
31386;SDS011;69978;50.096;8.448;2023-05-07T13:21:39;3.40;;;0.30;;
31386;SDS011;69978;50.096;8.448;2023-05-07T13:24:05;1.05;;;0.38;;
31386;SDS011;69978;50.096;8.448;2023-05-07T13:26:31;2.28;;;0.32;;
31386;SDS011;69978;50.096;8.448;2023-05-07T13:28:57;1.30;;;0.50;;
31386;SDS011;69978;50.096;8.448;2023-05-07T13:31:22;3.05;;;0.57;;
31386;SDS011;69978;50.096;8.448;2023-05-07T13:33:48;2.35;;;0.50;;
31386;SDS011;69978;50.096;8.448;2023-05-07T13:36:14;2.05;;;0.50;;
31386;SDS011;69978;50.096;8.448;2023-05-07T13:38:40;0.98;;;0.35;;
31386;SDS011;69978;50.096;8.448;2023-05-07T13:41:05;1.33;;;0.32;;
31386;SDS011;69978;50.096;8.448;2023-05-07T13:43:31;2.92;;;0.40;;
31386;SDS011;69978;50.096;8.448;2023-05-07T13:45:58;1.45;;;0.30;;
31386;SDS011;69978;50.096;8.448;2023-05-07T13:48:25;0.55;;;0.50;;
31386;SDS011;69978;50.096;8.448;2023-05-07T13:50:50;0.80;;;0.50;;
31386;SDS011;69978;50.096;8.448;2023-05-07T13:53:16;2.25;;;0.50;;
31386;SDS011;69978;50.096;8.448;2023-05-07T13:55:43;4.13;;;0.70;;
31386;SDS011;69978;50.096;8.448;2023-05-07T13:58:09;0.95;;;0.50;;
31386;SDS011;69978;50.096;8.448;2023-05-07T14:00:35;2.20;;;0.40;;
31386;SDS011;69978;50.096;8.448;2023-05-07T14:03:00;4.72;;;0.60;;
31386;SDS011;69978;50.096;8.448;2023-05-07T14:05:26;0.73;;;0.30;;
31386;SDS011;69978;50.096;8.448;2023-05-07T14:07:53;1.88;;;0.38;;
31386;SDS011;69978;50.096;8.448;2023-05-07T14:10:19;2.70;;;0.50;;
31386;SDS011;69978;50.096;8.448;2023-05-07T14:12:45;1.65;;;0.43;;
31386;SDS011;69978;50.096;8.448;2023-05-07T14:15:11;2.00;;;0.60;;
31386;SDS011;69978;50.096;8.448;2023-05-07T14:17:37;1.95;;;0.60;;
31386;SDS011;69978;50.096;8.448;2023-05-07T14:20:03;2.30;;;0.40;;
31386;SDS011;69978;50.096;8.448;2023-05-07T14:22:29;0.90;;;0.30;;
31386;SDS011;69978;50.096;8.448;2023-05-07T14:24:54;1.25;;;0.43;;
31386;SDS011;69978;50.096;8.448;2023-05-07T14:27:20;1.17;;;0.55;;
31386;SDS011;69978;50.096;8.448;2023-05-07T14:29:45;0.57;;;0.30;;
31386;SDS011;69978;50.096;8.448;2023-05-07T14:32:15;0.73;;;0.30;;
31386;SDS011;69978;50.096;8.448;2023-05-07T14:34:45;0.80;;;0.50;;
31386;SDS011;69978;50.096;8.448;2023-05-07T14:37:11;0.73;;;0.30;;
31386;SDS011;69978;50.096;8.448;2023-05-07T14:39:37;2.72;;;0.50;;
31386;SDS011;69978;50.096;8.448;2023-05-07T14:42:02;2.03;;;0.43;;
31386;SDS011;69978;50.096;8.448;2023-05-07T14:44:28;1.42;;;0.52;;
31386;SDS011;69978;50.096;8.448;2023-05-07T14:46:54;4.32;;;0.50;;
31386;SDS011;69978;50.096;8.448;2023-05-07T14:49:20;0.90;;;0.40;;
31386;SDS011;69978;50.096;8.448;2023-05-07T14:51:46;2.08;;;0.35;;
31386;SDS011;69978;50.096;8.448;2023-05-07T14:54:12;0.95;;;0.50;;
31386;SDS011;69978;50.096;8.448;2023-05-07T14:56:38;0.68;;;0.40;;
31386;SDS011;69978;50.096;8.448;2023-05-07T14:59:05;1.20;;;0.35;;
31386;SDS011;69978;50.096;8.448;2023-05-07T15:01:30;1.05;;;0.30;;
31386;SDS011;69978;50.096;8.448;2023-05-07T15:03:56;1.67;;;0.40;;
31386;SDS011;69978;50.096;8.448;2023-05-07T15:06:22;0.60;;;0.30;;
31386;SDS011;69978;50.096;8.448;2023-05-07T15:08:48;1.77;;;0.57;;
31386;SDS011;69978;50.096;8.448;2023-05-07T15:11:13;2.58;;;0.50;;
31386;SDS011;69978;50.096;8.448;2023-05-07T15:13:39;0.65;;;0.30;;